Terminal Aerodrome Forecast
Issued by NWS Duluth, MN

Home | Current Version | Previous Version | Text Only | Print | Product List | Glossary On
Versions: 1 2 3 4 5 6 7 8 9 10 11 12 13 14
459
FTUS43 KDLH 231739
TAFDLH
TAF
KDLH 231739Z 2318/2418 19005KT P6SM SKC
     FM240500 34005KT P6SM BKN150
     FM241000 01010KT P6SM BKN060=

USA.gov is the U.S. government's official web portal to all federal, state and local government web resources and services.